PWSweather.com
Personal Weather Stations
Station Observations
IHTIMAN1
Neighbourhood 1, IhtimanBG 2050

Neighbourhood 1IhtimanBG 2050

Lat: 42.436852, Lon: 23.817921

Elevation: 2066

Station Type: Oregon Scientific WMR968

http://ihtiman-meteo.com

High Low Average
Temperature 57.5°F14.2°C 43.9°F6.6°C 48.4°F9.1°C
Dew Point 45.5°F7.5°C 36.6°F2.6°C 41.7°F5.4°C
Winds 6.9 mph 11.1 kmh Calm Calm 3.0 mph SE4.8 kmh SE
Wind Gusts 10.4 mph16.7 kmh -- 4.0 mph6.4 kmh
Humidity 98% 49% 79%
Pressure 30.15 in1021.0 mb 29.97 in1014.9 mb -
Precipitation 0.05 in1.3 mm - -
Hour Temp Dew Point Humidity Winds Wind Gusts Pressure Precip Precip Rate Daily Precip Total
12:00 AM 46.0°F7.8°C 45.5°F7.5°C 98% 1.2 mph SE1.9 kmh SE 3.5 mph5.6 kmh 30.00 in1015.9 mb - 0.00 in0.0 mm 0.00 in0.0 mm
12:10 AM 46.0°F7.8°C 45.5°F7.5°C 98% Calm Calm 2.3 mph3.7 kmh 30.00 in1015.9 mb - 0.00 in0.0 mm 0.00 in0.0 mm
12:20 AM 46.0°F7.8°C 45.5°F7.5°C 98% 1.2 mph ESE1.9 kmh ESE 3.5 mph5.6 kmh 30.00 in1015.9 mb - 0.00 in0.0 mm 0.00 in0.0 mm
12:30 AM 45.9°F7.7°C 45.3°F7.4°C 98% 2.3 mph SE3.7 kmh SE 4.6 mph7.4 kmh 30.00 in1015.9 mb - 0.00 in0.0 mm 0.00 in0.0 mm
12:40 AM 45.9°F7.7°C 45.3°F7.4°C 98% 1.2 mph E1.9 kmh E 5.8 mph9.3 kmh 30.00 in1015.9 mb - 0.00 in0.0 mm 0.00 in0.0 mm
12:50 AM 45.9°F7.7°C 45.1°F7.3°C 97% 2.3 mph ESE3.7 kmh ESE 3.5 mph5.6 kmh 30.00 in1015.9 mb - 0.00 in0.0 mm 0.00 in0.0 mm
01:00 AM 45.7°F7.6°C 44.9°F7.2°C 97% 2.3 mph SE3.7 kmh SE 3.5 mph5.6 kmh 30.00 in1015.9 mb - 0.00 in0.0 mm 0.00 in0.0 mm
01:10 AM 45.7°F7.6°C 44.9°F7.2°C 97% Calm Calm 3.5 mph5.6 kmh 30.00 in1015.9 mb - 0.00 in0.0 mm 0.00 in0.0 mm
01:20 AM 45.7°F7.6°C 44.6°F7.0°C 96% 1.2 mph E1.9 kmh E 3.5 mph5.6 kmh 30.00 in1015.9 mb - 0.00 in0.0 mm 0.00 in0.0 mm
01:30 AM 45.7°F7.6°C 44.6°F7.0°C 96% Calm Calm -- 30.00 in1015.9 mb - 0.00 in0.0 mm 0.00 in0.0 mm
01:40 AM 45.7°F7.6°C 44.6°F7.0°C 96% Calm Calm -- 30.00 in1015.9 mb - 0.00 in0.0 mm 0.00 in0.0 mm
01:50 AM 45.5°F7.5°C 44.2°F6.8°C 95% 2.3 mph SE3.7 kmh SE 2.3 mph3.7 kmh 30.00 in1015.9 mb - 0.00 in0.0 mm 0.00 in0.0 mm
02:00 AM 45.5°F7.5°C 44.2°F6.8°C 95% 2.3 mph ESE3.7 kmh ESE 3.5 mph5.6 kmh 30.00 in1015.9 mb - 0.00 in0.0 mm 0.00 in0.0 mm
02:10 AM 45.5°F7.5°C 44.2°F6.8°C 95% Calm Calm 3.5 mph5.6 kmh 30.00 in1015.9 mb - 0.00 in0.0 mm 0.00 in0.0 mm
02:20 AM 45.4°F7.4°C 44.0°F6.7°C 95% Calm Calm -- 30.00 in1015.9 mb - 0.00 in0.0 mm 0.00 in0.0 mm
02:30 AM 45.3°F7.4°C 44.0°F6.7°C 95% Calm Calm -- 30.00 in1015.9 mb - 0.00 in0.0 mm 0.00 in0.0 mm
02:40 AM 45.3°F7.4°C 44.0°F6.7°C 95% Calm Calm 3.5 mph5.6 kmh 30.00 in1015.9 mb - 0.00 in0.0 mm 0.00 in0.0 mm
02:50 AM 45.3°F7.4°C 44.0°F6.7°C 95% 1.2 mph SE1.9 kmh SE 3.5 mph5.6 kmh 30.00 in1015.9 mb - 0.00 in0.0 mm 0.00 in0.0 mm
03:00 AM 45.3°F7.4°C 44.0°F6.7°C 95% 2.3 mph SE3.7 kmh SE 3.5 mph5.6 kmh 30.00 in1015.9 mb - 0.00 in0.0 mm 0.00 in0.0 mm
03:10 AM 45.3°F7.4°C 44.0°F6.7°C 95% 3.5 mph SE5.6 kmh SE 5.8 mph9.3 kmh 30.00 in1015.9 mb - 0.00 in0.0 mm 0.00 in0.0 mm
03:20 AM 45.3°F7.4°C 44.0°F6.7°C 95% 2.3 mph SE3.7 kmh SE 3.5 mph5.6 kmh 30.00 in1015.9 mb - 0.00 in0.0 mm 0.00 in0.0 mm
03:30 AM 45.3°F7.4°C 44.0°F6.7°C 95% 3.5 mph SE5.6 kmh SE 4.6 mph7.4 kmh 30.00 in1015.9 mb - 0.00 in0.0 mm 0.00 in0.0 mm
03:40 AM 45.1°F7.3°C 43.8°F6.6°C 95% 4.6 mph SE7.4 kmh SE 8.1 mph13.0 kmh 30.00 in1015.9 mb - 0.00 in0.0 mm 0.00 in0.0 mm
03:50 AM 45.0°F7.2°C 43.6°F6.4°C 95% 3.5 mph ESE5.6 kmh ESE 5.8 mph9.3 kmh 30.00 in1015.9 mb - 0.00 in0.0 mm 0.00 in0.0 mm
04:00 AM 44.9°F7.2°C 43.9°F6.6°C 96% 2.3 mph SE3.7 kmh SE 4.6 mph7.4 kmh 29.97 in1014.9 mb - 0.00 in0.0 mm 0.00 in0.0 mm
04:10 AM 44.8°F7.1°C 43.7°F6.5°C 96% 3.5 mph ESE5.6 kmh ESE 4.6 mph7.4 kmh 29.97 in1014.9 mb - 0.00 in0.0 mm 0.00 in0.0 mm
04:20 AM 44.8°F7.1°C 43.7°F6.5°C 96% 1.2 mph SE1.9 kmh SE 3.5 mph5.6 kmh 30.00 in1015.9 mb - 0.00 in0.0 mm 0.00 in0.0 mm
04:30 AM 44.6°F7.0°C 43.5°F6.4°C 96% 2.3 mph SE3.7 kmh SE 3.5 mph5.6 kmh 30.00 in1015.9 mb - 0.00 in0.0 mm 0.00 in0.0 mm
04:40 AM 44.4°F6.9°C 43.4°F6.3°C 96% 3.5 mph ESE5.6 kmh ESE 3.5 mph5.6 kmh 30.00 in1015.9 mb - 0.00 in0.0 mm 0.00 in0.0 mm
04:50 AM 44.2°F6.8°C 43.2°F6.2°C 96% Calm Calm -- 30.00 in1015.9 mb - 0.00 in0.0 mm 0.00 in0.0 mm
05:00 AM 44.2°F6.8°C 43.2°F6.2°C 96% Calm Calm -- 30.00 in1015.9 mb - 0.00 in0.0 mm 0.00 in0.0 mm
05:10 AM 44.4°F6.9°C 43.4°F6.3°C 96% Calm Calm -- 30.00 in1015.9 mb - 0.00 in0.0 mm 0.00 in0.0 mm
05:20 AM 44.2°F6.8°C 43.2°F6.2°C 96% 1.2 mph ESE1.9 kmh ESE 3.5 mph5.6 kmh 30.00 in1015.9 mb - 0.00 in0.0 mm 0.00 in0.0 mm
05:30 AM 44.2°F6.8°C 43.2°F6.2°C 96% 2.3 mph SE3.7 kmh SE 4.6 mph7.4 kmh 30.00 in1015.9 mb - 0.00 in0.0 mm 0.00 in0.0 mm
05:40 AM 44.2°F6.8°C 43.2°F6.2°C 96% Calm Calm 3.5 mph5.6 kmh 30.00 in1015.9 mb - 0.00 in0.0 mm 0.00 in0.0 mm
05:50 AM 44.2°F6.8°C 42.9°F6.1°C 95% 1.2 mph E1.9 kmh E 3.5 mph5.6 kmh 30.00 in1015.9 mb - 0.00 in0.0 mm 0.00 in0.0 mm
06:00 AM 44.2°F6.8°C 42.9°F6.1°C 95% 2.3 mph SE3.7 kmh SE 3.5 mph5.6 kmh 30.00 in1015.9 mb - 0.00 in0.0 mm 0.00 in0.0 mm
06:10 AM 44.2°F6.8°C 42.6°F5.9°C 94% 1.2 mph SE1.9 kmh SE 3.5 mph5.6 kmh 30.00 in1015.9 mb - 0.00 in0.0 mm 0.00 in0.0 mm
06:20 AM 44.1°F6.7°C 42.4°F5.8°C 94% 3.5 mph ESE5.6 kmh ESE 4.6 mph7.4 kmh 30.00 in1015.9 mb - 0.00 in0.0 mm 0.00 in0.0 mm
06:30 AM 44.1°F6.7°C 42.2°F5.7°C 93% 3.5 mph ESE5.6 kmh ESE 5.8 mph9.3 kmh 30.00 in1015.9 mb - 0.00 in0.0 mm 0.00 in0.0 mm
06:40 AM 44.1°F6.7°C 42.2°F5.7°C 93% 2.3 mph SE3.7 kmh SE 3.5 mph5.6 kmh 30.00 in1015.9 mb - 0.00 in0.0 mm 0.00 in0.0 mm
06:50 AM 44.1°F6.7°C 42.4°F5.8°C 94% Calm Calm 2.3 mph3.7 kmh 30.03 in1016.9 mb - 0.00 in0.0 mm 0.00 in0.0 mm
07:00 AM 44.2°F6.8°C 42.6°F5.9°C 94% 3.5 mph E5.6 kmh E 5.8 mph9.3 kmh 30.03 in1016.9 mb - 0.00 in0.0 mm 0.00 in0.0 mm
07:10 AM 44.2°F6.8°C 42.6°F5.9°C 94% 4.6 mph E7.4 kmh E 5.8 mph9.3 kmh 30.03 in1016.9 mb - 0.00 in0.0 mm 0.00 in0.0 mm
07:20 AM 44.5°F6.9°C 42.6°F5.9°C 93% Calm Calm 5.8 mph9.3 kmh 30.03 in1016.9 mb - 0.00 in0.0 mm 0.00 in0.0 mm
07:30 AM 44.8°F7.1°C 42.9°F6.1°C 93% 1.2 mph SE1.9 kmh SE 5.8 mph9.3 kmh 30.06 in1017.9 mb - 0.00 in0.0 mm 0.00 in0.0 mm
07:40 AM 44.8°F7.1°C 42.9°F6.1°C 93% 4.6 mph SE7.4 kmh SE 5.8 mph9.3 kmh 30.06 in1017.9 mb - 0.00 in0.0 mm 0.00 in0.0 mm
07:50 AM 45.1°F7.3°C 43.0°F6.1°C 92% 3.5 mph E5.6 kmh E 5.8 mph9.3 kmh 30.06 in1017.9 mb - 0.00 in0.0 mm 0.00 in0.0 mm
08:00 AM 46.1°F7.8°C 43.7°F6.5°C 91% 3.5 mph ESE5.6 kmh ESE 8.1 mph13.0 kmh 30.06 in1017.9 mb - 0.00 in0.0 mm 0.00 in0.0 mm
08:10 AM 46.6°F8.1°C 43.2°F6.2°C 88% 4.6 mph SSE7.4 kmh SSE 8.1 mph13.0 kmh 30.06 in1017.9 mb - 0.00 in0.0 mm 0.00 in0.0 mm
08:20 AM 46.1°F7.8°C 42.4°F5.8°C 87% 3.5 mph SE5.6 kmh SE 5.8 mph9.3 kmh 30.06 in1017.9 mb - 0.00 in0.0 mm 0.00 in0.0 mm
08:30 AM 46.2°F7.9°C 42.5°F5.8°C 87% 3.5 mph ESE5.6 kmh ESE 5.8 mph9.3 kmh 30.06 in1017.9 mb - 0.00 in0.0 mm 0.00 in0.0 mm
08:40 AM 46.3°F7.9°C 42.9°F6.1°C 88% 2.3 mph E3.7 kmh E 4.6 mph7.4 kmh 30.06 in1017.9 mb - 0.00 in0.0 mm 0.00 in0.0 mm
08:50 AM 47.1°F8.4°C 43.7°F6.5°C 88% 3.5 mph SE5.6 kmh SE 5.8 mph9.3 kmh 30.06 in1017.9 mb - 0.00 in0.0 mm 0.00 in0.0 mm
09:00 AM 47.3°F8.5°C 43.3°F6.3°C 86% 3.5 mph SSE5.6 kmh SSE 5.8 mph9.3 kmh 30.06 in1017.9 mb - 0.00 in0.0 mm 0.00 in0.0 mm
09:10 AM 47.6°F8.7°C 42.7°F5.9°C 83% 5.8 mph SE9.3 kmh SE 5.8 mph9.3 kmh 30.06 in1017.9 mb - 0.00 in0.0 mm 0.00 in0.0 mm
09:20 AM 47.8°F8.8°C 41.9°F5.5°C 80% 3.5 mph SSE5.6 kmh SSE 5.8 mph9.3 kmh 30.06 in1017.9 mb - 0.00 in0.0 mm 0.00 in0.0 mm
09:30 AM 47.5°F8.6°C 41.9°F5.5°C 81% 3.5 mph SSE5.6 kmh SSE 5.8 mph9.3 kmh 30.06 in1017.9 mb - 0.00 in0.0 mm 0.00 in0.0 mm
09:40 AM 48.6°F9.2°C 42.4°F5.8°C 79% 4.6 mph ESE7.4 kmh ESE 8.1 mph13.0 kmh 30.06 in1017.9 mb - 0.00 in0.0 mm 0.00 in0.0 mm
09:50 AM 48.9°F9.4°C 42.4°F5.8°C 78% 2.3 mph SE3.7 kmh SE 5.8 mph9.3 kmh 30.06 in1017.9 mb - 0.00 in0.0 mm 0.00 in0.0 mm
10:00 AM 48.5°F9.2°C 41.9°F5.5°C 78% 3.5 mph SE5.6 kmh SE 4.6 mph7.4 kmh 30.06 in1017.9 mb - 0.00 in0.0 mm 0.00 in0.0 mm
10:10 AM 47.9°F8.8°C 41.7°F5.4°C 79% 4.6 mph SE7.4 kmh SE 5.8 mph9.3 kmh 30.06 in1017.9 mb - 0.00 in0.0 mm 0.00 in0.0 mm
10:20 AM 47.6°F8.7°C 42.4°F5.8°C 82% 2.3 mph SE3.7 kmh SE 5.8 mph9.3 kmh 30.06 in1017.9 mb - 0.00 in0.0 mm 0.00 in0.0 mm
10:30 AM 47.3°F8.5°C 42.7°F5.9°C 84% 4.6 mph E7.4 kmh E 6.9 mph11.1 kmh 30.06 in1017.9 mb - 0.00 in0.0 mm 0.00 in0.0 mm
10:40 AM 47.4°F8.6°C 43.5°F6.4°C 86% 3.5 mph SE5.6 kmh SE 5.8 mph9.3 kmh 30.06 in1017.9 mb - 0.00 in0.0 mm 0.00 in0.0 mm
10:50 AM 46.8°F8.2°C 42.5°F5.8°C 85% 3.5 mph E5.6 kmh E 3.5 mph5.6 kmh 30.06 in1017.9 mb - 0.00 in0.0 mm 0.00 in0.0 mm
11:00 AM 46.6°F8.1°C 42.6°F5.9°C 86% 4.6 mph SE7.4 kmh SE 5.8 mph9.3 kmh 30.06 in1017.9 mb - 0.00 in0.0 mm 0.00 in0.0 mm
11:10 AM 47.8°F8.8°C 44.4°F6.9°C 88% 4.6 mph SE7.4 kmh SE 10.4 mph16.7 kmh 30.06 in1017.9 mb - 0.00 in0.0 mm 0.00 in0.0 mm
11:20 AM 48.3°F9.1°C 44.3°F6.8°C 86% 4.6 mph ESE7.4 kmh ESE 8.1 mph13.0 kmh 30.06 in1017.9 mb - 0.00 in0.0 mm 0.00 in0.0 mm
11:30 AM 48.2°F9.0°C 43.3°F6.3°C 83% 5.8 mph SE9.3 kmh SE 8.1 mph13.0 kmh 30.06 in1017.9 mb - 0.00 in0.0 mm 0.00 in0.0 mm
11:40 AM 47.2°F8.4°C 42.6°F5.9°C 84% 3.5 mph SE5.6 kmh SE 8.1 mph13.0 kmh 30.06 in1017.9 mb - 0.00 in0.0 mm 0.00 in0.0 mm
11:50 AM 48.5°F9.2°C 44.2°F6.8°C 85% 4.6 mph SE7.4 kmh SE 10.4 mph16.7 kmh 30.06 in1017.9 mb - 0.00 in0.0 mm 0.00 in0.0 mm
12:00 PM 49.6°F9.8°C 44.6°F7.0°C 83% 3.5 mph SSE5.6 kmh SSE 5.8 mph9.3 kmh 30.06 in1017.9 mb - 0.00 in0.0 mm 0.00 in0.0 mm
12:10 PM 50.2°F10.1°C 43.9°F6.6°C 79% 3.5 mph ESE5.6 kmh ESE 5.8 mph9.3 kmh 30.06 in1017.9 mb - 0.00 in0.0 mm 0.00 in0.0 mm
12:20 PM 52.0°F11.1°C 45.0°F7.2°C 77% 6.9 mph S11.1 kmh S 8.1 mph13.0 kmh 30.06 in1017.9 mb - 0.00 in0.0 mm 0.00 in0.0 mm
12:30 PM 50.7°F10.4°C 42.4°F5.8°C 73% 4.6 mph SSE7.4 kmh SSE 5.8 mph9.3 kmh 30.06 in1017.9 mb - 0.00 in0.0 mm 0.00 in0.0 mm
12:40 PM 50.1°F10.1°C 41.7°F5.4°C 73% 3.5 mph SE5.6 kmh SE 4.6 mph7.4 kmh 30.06 in1017.9 mb - 0.00 in0.0 mm 0.00 in0.0 mm
12:50 PM 50.5°F10.3°C 41.8°F5.4°C 72% 3.5 mph ESE5.6 kmh ESE 5.8 mph9.3 kmh 30.06 in1017.9 mb - 0.00 in0.0 mm 0.00 in0.0 mm
01:00 PM 50.5°F10.3°C 41.4°F5.2°C 71% 3.5 mph ESE5.6 kmh ESE 6.9 mph11.1 kmh 30.06 in1017.9 mb - 0.00 in0.0 mm 0.00 in0.0 mm
01:10 PM 51.6°F10.9°C 42.1°F5.6°C 70% 5.8 mph SE9.3 kmh SE 9.2 mph14.8 kmh 30.06 in1017.9 mb - 0.00 in0.0 mm 0.00 in0.0 mm
01:20 PM 53.2°F11.8°C 42.9°F6.1°C 68% 2.3 mph SE3.7 kmh SE 5.8 mph9.3 kmh 30.06 in1017.9 mb - 0.00 in0.0 mm 0.00 in0.0 mm
01:30 PM 55.5°F13.1°C 42.7°F5.9°C 62% 4.6 mph ESE7.4 kmh ESE 8.1 mph13.0 kmh 30.06 in1017.9 mb - 0.00 in0.0 mm 0.00 in0.0 mm
01:40 PM 56.4°F13.6°C 41.8°F5.4°C 58% 4.6 mph SSE7.4 kmh SSE 5.8 mph9.3 kmh 30.06 in1017.9 mb - 0.00 in0.0 mm 0.00 in0.0 mm
01:50 PM 54.0°F12.2°C 39.5°F4.2°C 58% 5.8 mph SE9.3 kmh SE 5.8 mph9.3 kmh 30.06 in1017.9 mb - 0.00 in0.0 mm 0.00 in0.0 mm
02:00 PM 53.8°F12.1°C 38.5°F3.6°C 56% 5.8 mph SE9.3 kmh SE 5.8 mph9.3 kmh 30.03 in1016.9 mb - 0.00 in0.0 mm 0.00 in0.0 mm
02:10 PM 56.7°F13.7°C 41.1°F5.1°C 56% 4.6 mph SE7.4 kmh SE 5.8 mph9.3 kmh 30.03 in1016.9 mb - 0.00 in0.0 mm 0.00 in0.0 mm
02:20 PM 54.5°F12.5°C 39.1°F3.9°C 56% 5.8 mph SE9.3 kmh SE 5.8 mph9.3 kmh 30.03 in1016.9 mb - 0.00 in0.0 mm 0.00 in0.0 mm
02:30 PM 54.4°F12.4°C 39.0°F3.9°C 56% 4.6 mph SE7.4 kmh SE 8.1 mph13.0 kmh 30.03 in1016.9 mb - 0.00 in0.0 mm 0.00 in0.0 mm
02:40 PM 56.8°F13.8°C 39.4°F4.1°C 52% 5.8 mph ESE9.3 kmh ESE 8.1 mph13.0 kmh 30.03 in1016.9 mb - 0.00 in0.0 mm 0.00 in0.0 mm
02:50 PM 57.5°F14.2°C 39.0°F3.9°C 50% 4.6 mph E7.4 kmh E 5.8 mph9.3 kmh 30.03 in1016.9 mb - 0.00 in0.0 mm 0.00 in0.0 mm
03:00 PM 56.2°F13.4°C 37.3°F2.9°C 49% 4.6 mph SE7.4 kmh SE 5.8 mph9.3 kmh 30.03 in1016.9 mb - 0.00 in0.0 mm 0.00 in0.0 mm
03:10 PM 55.0°F12.8°C 38.6°F3.7°C 54% 4.6 mph E7.4 kmh E 5.8 mph9.3 kmh 30.03 in1016.9 mb - 0.00 in0.0 mm 0.00 in0.0 mm
03:20 PM 54.6°F12.6°C 38.3°F3.5°C 54% 5.8 mph SE9.3 kmh SE 5.8 mph9.3 kmh 30.03 in1016.9 mb - 0.00 in0.0 mm 0.00 in0.0 mm
03:30 PM 55.8°F13.2°C 38.9°F3.8°C 53% 4.6 mph SE7.4 kmh SE 8.1 mph13.0 kmh 30.03 in1016.9 mb - 0.00 in0.0 mm 0.00 in0.0 mm
03:40 PM 53.5°F11.9°C 37.7°F3.2°C 55% 3.5 mph E5.6 kmh E 5.8 mph9.3 kmh 30.03 in1016.9 mb - 0.00 in0.0 mm 0.00 in0.0 mm
03:50 PM 53.3°F11.8°C 38.0°F3.3°C 56% 4.6 mph SE7.4 kmh SE 5.8 mph9.3 kmh 30.03 in1016.9 mb - 0.00 in0.0 mm 0.00 in0.0 mm
04:00 PM 53.9°F12.2°C 37.6°F3.1°C 54% 4.6 mph SE7.4 kmh SE 5.8 mph9.3 kmh 30.03 in1016.9 mb - 0.00 in0.0 mm 0.00 in0.0 mm
04:10 PM 53.1°F11.7°C 37.3°F2.9°C 55% 4.6 mph SE7.4 kmh SE 5.8 mph9.3 kmh 30.03 in1016.9 mb - 0.00 in0.0 mm 0.00 in0.0 mm
04:20 PM 52.9°F11.6°C 38.9°F3.8°C 59% 3.5 mph SE5.6 kmh SE 5.8 mph9.3 kmh 30.03 in1016.9 mb - 0.00 in0.0 mm 0.00 in0.0 mm
04:30 PM 52.6°F11.4°C 38.7°F3.7°C 59% 4.6 mph E7.4 kmh E 8.1 mph13.0 kmh 30.03 in1016.9 mb - 0.00 in0.0 mm 0.00 in0.0 mm
04:40 PM 52.9°F11.6°C 38.5°F3.6°C 58% 4.6 mph ESE7.4 kmh ESE 8.1 mph13.0 kmh 30.03 in1016.9 mb - 0.00 in0.0 mm 0.00 in0.0 mm
04:50 PM 54.6°F12.6°C 38.7°F3.7°C 55% 4.6 mph ESE7.4 kmh ESE 9.2 mph14.8 kmh 30.03 in1016.9 mb - 0.00 in0.0 mm 0.00 in0.0 mm
05:00 PM 53.8°F12.1°C 37.1°F2.8°C 53% 4.6 mph E7.4 kmh E 5.8 mph9.3 kmh 30.03 in1016.9 mb - 0.00 in0.0 mm 0.00 in0.0 mm
05:10 PM 53.7°F12.1°C 37.4°F3.0°C 54% 4.6 mph ESE7.4 kmh ESE 5.8 mph9.3 kmh 30.03 in1016.9 mb - 0.00 in0.0 mm 0.00 in0.0 mm
05:20 PM 52.3°F11.3°C 36.6°F2.6°C 55% 4.6 mph SE7.4 kmh SE 8.1 mph13.0 kmh 30.03 in1016.9 mb - 0.00 in0.0 mm 0.00 in0.0 mm
05:30 PM 51.8°F11.0°C 37.0°F2.8°C 57% 4.6 mph SE7.4 kmh SE 6.9 mph11.1 kmh 30.03 in1016.9 mb - 0.00 in0.0 mm 0.00 in0.0 mm
05:40 PM 51.6°F10.9°C 37.7°F3.2°C 59% 3.5 mph ESE5.6 kmh ESE 3.5 mph5.6 kmh 30.03 in1016.9 mb - 0.00 in0.0 mm 0.00 in0.0 mm
05:50 PM 51.3°F10.7°C 37.4°F3.0°C 59% 3.5 mph SE5.6 kmh SE 5.8 mph9.3 kmh 30.03 in1016.9 mb - 0.00 in0.0 mm 0.00 in0.0 mm
06:00 PM 51.4°F10.8°C 38.0°F3.3°C 60% 2.3 mph ESE3.7 kmh ESE 3.5 mph5.6 kmh 30.03 in1016.9 mb - 0.00 in0.0 mm 0.00 in0.0 mm
06:10 PM 51.3°F10.7°C 37.4°F3.0°C 59% 2.3 mph E3.7 kmh E 3.5 mph5.6 kmh 30.03 in1016.9 mb - 0.00 in0.0 mm 0.00 in0.0 mm
06:20 PM 51.1°F10.6°C 37.2°F2.9°C 59% 3.5 mph SE5.6 kmh SE 3.5 mph5.6 kmh 30.03 in1016.9 mb - 0.00 in0.0 mm 0.00 in0.0 mm
06:30 PM 50.9°F10.5°C 37.5°F3.1°C 60% Calm Calm 2.3 mph3.7 kmh 30.06 in1017.9 mb - 0.00 in0.0 mm 0.00 in0.0 mm
06:40 PM 50.9°F10.5°C 37.9°F3.3°C 61% Calm Calm 2.3 mph3.7 kmh 30.06 in1017.9 mb - 0.00 in0.0 mm 0.00 in0.0 mm
06:50 PM 50.7°F10.4°C 38.2°F3.4°C 62% Calm Calm -- 30.06 in1017.9 mb - 0.00 in0.0 mm 0.00 in0.0 mm
07:00 PM 50.5°F10.3°C 38.4°F3.6°C 63% Calm Calm 2.3 mph3.7 kmh 30.06 in1017.9 mb - 0.00 in0.0 mm 0.00 in0.0 mm
07:10 PM 50.2°F10.1°C 38.9°F3.8°C 65% Calm Calm -- 30.06 in1017.9 mb - 0.00 in0.0 mm 0.00 in0.0 mm
07:20 PM 50.0°F10.0°C 39.1°F3.9°C 66% 1.2 mph NE1.9 kmh NE 3.5 mph5.6 kmh 30.09 in1019.0 mb - 0.00 in0.0 mm 0.00 in0.0 mm
07:30 PM 49.7°F9.8°C 39.9°F4.4°C 69% 2.3 mph E3.7 kmh E 3.5 mph5.6 kmh 30.09 in1019.0 mb - 0.00 in0.0 mm 0.00 in0.0 mm
07:40 PM 49.5°F9.7°C 40.1°F4.5°C 70% Calm Calm 2.3 mph3.7 kmh 30.09 in1019.0 mb - 0.00 in0.0 mm 0.00 in0.0 mm
07:50 PM 49.5°F9.7°C 40.4°F4.7°C 71% Calm Calm -- 30.09 in1019.0 mb - 0.00 in0.0 mm 0.00 in0.0 mm
08:00 PM 49.3°F9.6°C 40.6°F4.8°C 72% Calm Calm -- 30.06 in1017.9 mb - 0.00 in0.0 mm 0.00 in0.0 mm
08:10 PM 49.1°F9.5°C 40.5°F4.7°C 72% Calm Calm -- 30.06 in1017.9 mb - 0.00 in0.0 mm 0.00 in0.0 mm
08:20 PM 48.9°F9.4°C 40.6°F4.8°C 73% Calm Calm -- 30.09 in1019.0 mb - 0.00 in0.0 mm 0.00 in0.0 mm
08:30 PM 48.7°F9.3°C 40.5°F4.7°C 73% Calm Calm -- 30.09 in1019.0 mb - 0.00 in0.0 mm 0.00 in0.0 mm
08:40 PM 48.6°F9.2°C 40.6°F4.8°C 74% Calm Calm -- 30.09 in1019.0 mb - 0.00 in0.0 mm 0.00 in0.0 mm
08:50 PM 48.4°F9.1°C 40.5°F4.7°C 74% Calm Calm -- 30.09 in1019.0 mb - 0.00 in0.0 mm 0.00 in0.0 mm
09:00 PM 48.2°F9.0°C 40.3°F4.6°C 74% Calm Calm -- 30.09 in1019.0 mb - 0.00 in0.0 mm 0.00 in0.0 mm
09:10 PM 47.7°F8.7°C 40.2°F4.6°C 75% Calm Calm -- 30.09 in1019.0 mb - 0.00 in0.0 mm 0.00 in0.0 mm
09:20 PM 47.5°F8.6°C 40.3°F4.6°C 76% Calm Calm -- 30.12 in1020.0 mb - 0.00 in0.0 mm 0.00 in0.0 mm
09:30 PM 47.3°F8.5°C 40.1°F4.5°C 76% Calm Calm -- 30.12 in1020.0 mb - 0.00 in0.0 mm 0.00 in0.0 mm
09:40 PM 47.3°F8.5°C 40.1°F4.5°C 76% Calm Calm -- 30.12 in1020.0 mb - 0.00 in0.0 mm 0.00 in0.0 mm
09:50 PM 47.3°F8.5°C 41.4°F5.2°C 80% Calm Calm -- 30.12 in1020.0 mb - 0.00 in0.0 mm 0.00 in0.0 mm
10:00 PM 47.3°F8.5°C 41.4°F5.2°C 80% Calm Calm -- 30.12 in1020.0 mb - 0.00 in0.0 mm 0.00 in0.0 mm
10:10 PM 47.3°F8.5°C 41.4°F5.2°C 80% Calm Calm -- 30.12 in1020.0 mb - 0.00 in0.0 mm 0.00 in0.0 mm
10:20 PM 47.3°F8.5°C 41.4°F5.2°C 80% 1.2 mph SSE1.9 kmh SSE -- 30.12 in1020.0 mb - 0.00 in0.0 mm 0.00 in0.0 mm
10:30 PM 47.3°F8.5°C 41.4°F5.2°C 80% Calm Calm -- 30.12 in1020.0 mb - 0.00 in0.0 mm 0.00 in0.0 mm
10:40 PM 47.3°F8.5°C 41.4°F5.2°C 80% Calm Calm -- 30.12 in1020.0 mb - 0.00 in0.0 mm 0.00 in0.0 mm
10:50 PM 47.3°F8.5°C 41.4°F5.2°C 80% Calm Calm -- 30.12 in1020.0 mb - 0.00 in0.0 mm 0.00 in0.0 mm
11:00 PM 47.3°F8.5°C 41.4°F5.2°C 80% Calm Calm -- 30.12 in1020.0 mb - 0.00 in0.0 mm 0.00 in0.0 mm
11:10 PM 47.3°F8.5°C 41.4°F5.2°C 80% Calm Calm 5.8 mph9.3 kmh 30.12 in1020.0 mb - 0.00 in0.0 mm 0.00 in0.0 mm
11:20 PM 47.3°F8.5°C 41.4°F5.2°C 80% 2.3 mph SE3.7 kmh SE 3.5 mph5.6 kmh 30.12 in1020.0 mb - 0.00 in0.0 mm 0.00 in0.0 mm
11:30 PM 47.3°F8.5°C 41.4°F5.2°C 80% 4.6 mph ESE7.4 kmh ESE 8.1 mph13.0 kmh 30.15 in1021.0 mb - 0.00 in0.0 mm 0.00 in0.0 mm
11:40 PM 44.6°F7.0°C 40.3°F4.6°C 85% 3.5 mph SE5.6 kmh SE 4.6 mph7.4 kmh 30.15 in1021.0 mb - 0.00 in0.0 mm 0.00 in0.0 mm
11:50 PM 43.9°F6.6°C 40.3°F4.6°C 87% 4.6 mph SE7.4 kmh SE 5.8 mph9.3 kmh 30.15 in1021.0 mb - 0.05 in1.3 mm 0.05 in1.3 mm